Terminal Aerodrome Forecast
Issued by NWS

Home | Current Version | Previous Version | Text Only | Print | Product List | Glossary On
Versions: 1 2 3 4 5 6 7 8 9 10 11 12 13 14 15
000
FTUS45 KFGZ 021135
TAFSEZ
TAF
KSEZ 021135Z 0212/0312 04006KT P6SM FEW250
     FM022000 19010KT P6SM SCT050 SCT250
     FM030300 05009KT P6SM SCT050
      AMD NOT SKED=

USA.gov is the U.S. government's official web portal to all federal, state and local government web resources and services.